DA15 weather

Saida Airport
Saïda Province, Algeria

Public forecast

Using degrees Celsius for public forecast. Weather courtesy of forecast.io.

Closest aviation weather report (METAR) to Saida Airport

Closest report is Ghriss Airport, 18.6 nm (34.5 km) N. Retrieved 2019/10/19 03:00 UTC (35 minutes ago):

DAOV 190300Z 12002KT 9999 FEW026 SCT233 13/04 Q1015

Closest aviation forecast (TAF) to Saida Airport

Forecast is more than 12 hours old.

Closest forecast is Ghriss Airport, 18.6 nm (34.5 km) N. Retrieved 2019/05/21 00:00 UTC (5 months ago):

TAF DAOV 202300Z 2100/2124 VRB02KT 9999 FEW030 SCT100 PROB40 TEMPO 2103/2108 3000 BR BKN010